sensor_id;sensor_type;location;lat;lon;timestamp;P1;durP1;ratioP1;P2;durP2;ratioP2
57241;SDS011;43095;53.302;5.786;2022-10-31T00:01:13;19.95;;;11.73;;
57241;SDS011;43095;53.302;5.786;2022-10-31T00:03:44;18.52;;;11.00;;
57241;SDS011;43095;53.302;5.786;2022-10-31T00:06:12;25.55;;;12.88;;
57241;SDS011;43095;53.302;5.786;2022-10-31T00:08:39;16.48;;;11.48;;
57241;SDS011;43095;53.302;5.786;2022-10-31T00:11:10;23.42;;;12.40;;
57241;SDS011;43095;53.302;5.786;2022-10-31T00:13:40;19.73;;;11.85;;
57241;SDS011;43095;53.302;5.786;2022-10-31T00:16:23;20.73;;;11.02;;
57241;SDS011;43095;53.302;5.786;2022-10-31T00:18:51;22.80;;;11.63;;
57241;SDS011;43095;53.302;5.786;2022-10-31T00:21:20;17.80;;;11.27;;
57241;SDS011;43095;53.302;5.786;2022-10-31T00:23:48;17.52;;;11.38;;
57241;SDS011;43095;53.302;5.786;2022-10-31T00:26:15;25.35;;;13.73;;
57241;SDS011;43095;53.302;5.786;2022-10-31T00:28:42;20.48;;;11.13;;
57241;SDS011;43095;53.302;5.786;2022-10-31T00:31:10;16.40;;;10.50;;
57241;SDS011;43095;53.302;5.786;2022-10-31T00:33:39;23.00;;;13.80;;
57241;SDS011;43095;53.302;5.786;2022-10-31T00:36:07;18.73;;;13.02;;
57241;SDS011;43095;53.302;5.786;2022-10-31T00:41:07;21.60;;;11.18;;
57241;SDS011;43095;53.302;5.786;2022-10-31T00:43:35;27.05;;;13.60;;
57241;SDS011;43095;53.302;5.786;2022-10-31T00:46:02;22.20;;;13.75;;
57241;SDS011;43095;53.302;5.786;2022-10-31T00:48:29;21.02;;;12.32;;
57241;SDS011;43095;53.302;5.786;2022-10-31T00:50:56;24.30;;;13.57;;
57241;SDS011;43095;53.302;5.786;2022-10-31T00:53:24;25.15;;;13.00;;
57241;SDS011;43095;53.302;5.786;2022-10-31T00:55:54;29.65;;;14.00;;
57241;SDS011;43095;53.302;5.786;2022-10-31T00:58:22;33.15;;;15.85;;
57241;SDS011;43095;53.302;5.786;2022-10-31T01:00:49;30.83;;;15.82;;
57241;SDS011;43095;53.302;5.786;2022-10-31T01:03:29;30.55;;;14.95;;
57241;SDS011;43095;53.302;5.786;2022-10-31T01:06:05;25.63;;;13.75;;
57241;SDS011;43095;53.302;5.786;2022-10-31T01:08:35;26.10;;;12.73;;
57241;SDS011;43095;53.302;5.786;2022-10-31T01:11:13;27.70;;;14.02;;
57241;SDS011;43095;53.302;5.786;2022-10-31T01:13:45;22.95;;;12.88;;
57241;SDS011;43095;53.302;5.786;2022-10-31T01:16:13;19.90;;;12.55;;
57241;SDS011;43095;53.302;5.786;2022-10-31T01:18:42;22.98;;;12.18;;
57241;SDS011;43095;53.302;5.786;2022-10-31T01:21:14;23.02;;;13.57;;
57241;SDS011;43095;53.302;5.786;2022-10-31T01:23:49;23.20;;;13.40;;
57241;SDS011;43095;53.302;5.786;2022-10-31T01:26:34;22.30;;;13.77;;
57241;SDS011;43095;53.302;5.786;2022-10-31T01:29:07;21.80;;;12.77;;
57241;SDS011;43095;53.302;5.786;2022-10-31T01:31:35;22.35;;;12.68;;
57241;SDS011;43095;53.302;5.786;2022-10-31T01:34:04;19.63;;;12.25;;
57241;SDS011;43095;53.302;5.786;2022-10-31T01:36:35;19.92;;;10.90;;
57241;SDS011;43095;53.302;5.786;2022-10-31T01:39:08;21.52;;;11.30;;
57241;SDS011;43095;53.302;5.786;2022-10-31T01:41:39;21.50;;;11.45;;
57241;SDS011;43095;53.302;5.786;2022-10-31T01:49:16;22.17;;;11.75;;
57241;SDS011;43095;53.302;5.786;2022-10-31T01:52:09;18.98;;;11.25;;
57241;SDS011;43095;53.302;5.786;2022-10-31T01:54:38;18.60;;;12.43;;
57241;SDS011;43095;53.302;5.786;2022-10-31T01:57:10;22.23;;;12.15;;
57241;SDS011;43095;53.302;5.786;2022-10-31T01:59:42;24.25;;;13.50;;
57241;SDS011;43095;53.302;5.786;2022-10-31T02:02:13;24.15;;;14.27;;
57241;SDS011;43095;53.302;5.786;2022-10-31T02:04:44;30.45;;;14.85;;
57241;SDS011;43095;53.302;5.786;2022-10-31T02:07:18;19.70;;;12.75;;
57241;SDS011;43095;53.302;5.786;2022-10-31T02:09:50;25.35;;;14.52;;
57241;SDS011;43095;53.302;5.786;2022-10-31T02:12:20;23.13;;;12.20;;
57241;SDS011;43095;53.302;5.786;2022-10-31T02:14:48;24.77;;;14.55;;
57241;SDS011;43095;53.302;5.786;2022-10-31T02:17:15;24.65;;;14.63;;
57241;SDS011;43095;53.302;5.786;2022-10-31T02:19:49;26.30;;;15.43;;
57241;SDS011;43095;53.302;5.786;2022-10-31T02:22:29;24.52;;;15.45;;
57241;SDS011;43095;53.302;5.786;2022-10-31T02:28:05;30.92;;;16.38;;
57241;SDS011;43095;53.302;5.786;2022-10-31T02:33:41;25.65;;;16.85;;
57241;SDS011;43095;53.302;5.786;2022-10-31T02:47:26;22.23;;;16.85;;
57241;SDS011;43095;53.302;5.786;2022-10-31T02:50:01;27.20;;;17.95;;
57241;SDS011;43095;53.302;5.786;2022-10-31T02:52:34;26.50;;;17.35;;
57241;SDS011;43095;53.302;5.786;2022-10-31T02:55:42;28.58;;;18.42;;
57241;SDS011;43095;53.302;5.786;2022-10-31T02:58:04;27.38;;;17.00;;
57241;SDS011;43095;53.302;5.786;2022-10-31T03:00:37;27.55;;;18.02;;
57241;SDS011;43095;53.302;5.786;2022-10-31T03:03:25;26.60;;;17.58;;
57241;SDS011;43095;53.302;5.786;2022-10-31T03:06:02;31.92;;;18.73;;
57241;SDS011;43095;53.302;5.786;2022-10-31T03:09:21;23.30;;;16.00;;
57241;SDS011;43095;53.302;5.786;2022-10-31T03:14:43;30.95;;;18.52;;
57241;SDS011;43095;53.302;5.786;2022-10-31T03:17:25;31.13;;;19.23;;
57241;SDS011;43095;53.302;5.786;2022-10-31T03:20:03;25.85;;;17.48;;
57241;SDS011;43095;53.302;5.786;2022-10-31T03:22:34;27.17;;;17.35;;
57241;SDS011;43095;53.302;5.786;2022-10-31T03:25:02;28.10;;;17.42;;
57241;SDS011;43095;53.302;5.786;2022-10-31T03:27:33;23.67;;;16.83;;
57241;SDS011;43095;53.302;5.786;2022-10-31T03:30:04;28.65;;;18.77;;
57241;SDS011;43095;53.302;5.786;2022-10-31T03:32:48;26.70;;;17.33;;
57241;SDS011;43095;53.302;5.786;2022-10-31T03:35:20;26.48;;;16.67;;
57241;SDS011;43095;53.302;5.786;2022-10-31T03:37:51;21.67;;;16.33;;
57241;SDS011;43095;53.302;5.786;2022-10-31T03:40:20;24.67;;;15.85;;
57241;SDS011;43095;53.302;5.786;2022-10-31T03:42:51;23.02;;;16.65;;
57241;SDS011;43095;53.302;5.786;2022-10-31T03:45:24;24.25;;;16.88;;
57241;SDS011;43095;53.302;5.786;2022-10-31T03:47:55;22.40;;;16.17;;
57241;SDS011;43095;53.302;5.786;2022-10-31T03:50:26;24.40;;;16.17;;
57241;SDS011;43095;53.302;5.786;2022-10-31T03:55:32;22.42;;;15.20;;
57241;SDS011;43095;53.302;5.786;2022-10-31T03:58:26;19.65;;;14.40;;
57241;SDS011;43095;53.302;5.786;2022-10-31T04:00:59;24.80;;;15.73;;
57241;SDS011;43095;53.302;5.786;2022-10-31T04:03:30;26.92;;;17.45;;
57241;SDS011;43095;53.302;5.786;2022-10-31T04:06:02;20.90;;;16.45;;
57241;SDS011;43095;53.302;5.786;2022-10-31T04:08:37;23.77;;;16.48;;
57241;SDS011;43095;53.302;5.786;2022-10-31T04:11:12;24.48;;;16.50;;
57241;SDS011;43095;53.302;5.786;2022-10-31T04:13:45;25.02;;;18.60;;
57241;SDS011;43095;53.302;5.786;2022-10-31T04:16:19;23.77;;;16.50;;
57241;SDS011;43095;53.302;5.786;2022-10-31T04:18:48;28.88;;;19.35;;
57241;SDS011;43095;53.302;5.786;2022-10-31T04:21:15;30.65;;;19.38;;
57241;SDS011;43095;53.302;5.786;2022-10-31T04:23:43;29.52;;;20.08;;
57241;SDS011;43095;53.302;5.786;2022-10-31T04:26:17;20.55;;;15.35;;
57241;SDS011;43095;53.302;5.786;2022-10-31T04:28:45;25.75;;;17.48;;
57241;SDS011;43095;53.302;5.786;2022-10-31T04:31:13;29.85;;;18.80;;
57241;SDS011;43095;53.302;5.786;2022-10-31T04:33:43;23.73;;;17.42;;
57241;SDS011;43095;53.302;5.786;2022-10-31T04:36:11;31.73;;;20.63;;
57241;SDS011;43095;53.302;5.786;2022-10-31T04:38:38;28.88;;;19.27;;
57241;SDS011;43095;53.302;5.786;2022-10-31T04:41:14;24.83;;;17.05;;
57241;SDS011;43095;53.302;5.786;2022-10-31T04:43:50;33.92;;;20.80;;
57241;SDS011;43095;53.302;5.786;2022-10-31T04:46:18;20.48;;;14.85;;
57241;SDS011;43095;53.302;5.786;2022-10-31T04:48:46;29.70;;;19.25;;
57241;SDS011;43095;53.302;5.786;2022-10-31T04:51:15;23.38;;;16.92;;
57241;SDS011;43095;53.302;5.786;2022-10-31T04:53:42;21.63;;;15.45;;
57241;SDS011;43095;53.302;5.786;2022-10-31T04:56:41;21.48;;;15.20;;
57241;SDS011;43095;53.302;5.786;2022-10-31T04:59:14;25.02;;;15.75;;
57241;SDS011;43095;53.302;5.786;2022-10-31T05:01:51;20.10;;;14.82;;
57241;SDS011;43095;53.302;5.786;2022-10-31T05:04:38;20.75;;;15.07;;
57241;SDS011;43095;53.302;5.786;2022-10-31T05:07:06;22.20;;;15.27;;
57241;SDS011;43095;53.302;5.786;2022-10-31T05:09:33;17.63;;;15.25;;
57241;SDS011;43095;53.302;5.786;2022-10-31T05:12:01;23.67;;;16.10;;
57241;SDS011;43095;53.302;5.786;2022-10-31T05:14:46;24.27;;;15.70;;
57241;SDS011;43095;53.302;5.786;2022-10-31T05:17:33;22.60;;;16.45;;
57241;SDS011;43095;53.302;5.786;2022-10-31T05:20:23;22.17;;;15.90;;
57241;SDS011;43095;53.302;5.786;2022-10-31T05:23:19;26.02;;;18.20;;
57241;SDS011;43095;53.302;5.786;2022-10-31T05:25:48;18.02;;;14.30;;
57241;SDS011;43095;53.302;5.786;2022-10-31T05:28:16;33.60;;;20.75;;
57241;SDS011;43095;53.302;5.786;2022-10-31T05:30:44;31.60;;;17.90;;
57241;SDS011;43095;53.302;5.786;2022-10-31T05:33:14;21.02;;;15.23;;
57241;SDS011;43095;53.302;5.786;2022-10-31T05:36:00;29.48;;;18.25;;
57241;SDS011;43095;53.302;5.786;2022-10-31T05:38:33;21.67;;;16.08;;
57241;SDS011;43095;53.302;5.786;2022-10-31T05:41:09;21.35;;;15.80;;
57241;SDS011;43095;53.302;5.786;2022-10-31T05:43:40;20.98;;;15.15;;
57241;SDS011;43095;53.302;5.786;2022-10-31T05:46:07;20.58;;;15.15;;
57241;SDS011;43095;53.302;5.786;2022-10-31T05:48:53;23.05;;;17.02;;
57241;SDS011;43095;53.302;5.786;2022-10-31T05:51:41;18.40;;;14.65;;
57241;SDS011;43095;53.302;5.786;2022-10-31T05:54:09;21.33;;;16.60;;
57241;SDS011;43095;53.302;5.786;2022-10-31T05:56:43;20.08;;;14.73;;
57241;SDS011;43095;53.302;5.786;2022-10-31T05:59:11;25.30;;;15.43;;
57241;SDS011;43095;53.302;5.786;2022-10-31T06:01:41;19.80;;;13.57;;
57241;SDS011;43095;53.302;5.786;2022-10-31T06:06:51;18.15;;;14.13;;
57241;SDS011;43095;53.302;5.786;2022-10-31T06:09:18;19.23;;;15.10;;
57241;SDS011;43095;53.302;5.786;2022-10-31T06:11:46;16.85;;;13.90;;
57241;SDS011;43095;53.302;5.786;2022-10-31T06:14:23;21.27;;;15.27;;
57241;SDS011;43095;53.302;5.786;2022-10-31T06:19:42;17.15;;;12.65;;
57241;SDS011;43095;53.302;5.786;2022-10-31T06:22:11;17.50;;;14.73;;
57241;SDS011;43095;53.302;5.786;2022-10-31T06:24:39;20.80;;;15.73;;
57241;SDS011;43095;53.302;5.786;2022-10-31T06:27:18;21.05;;;13.98;;
57241;SDS011;43095;53.302;5.786;2022-10-31T06:29:45;19.15;;;13.75;;
57241;SDS011;43095;53.302;5.786;2022-10-31T06:32:28;19.75;;;14.65;;
57241;SDS011;43095;53.302;5.786;2022-10-31T06:34:57;16.75;;;14.00;;
57241;SDS011;43095;53.302;5.786;2022-10-31T06:37:24;17.50;;;14.05;;
57241;SDS011;43095;53.302;5.786;2022-10-31T06:39:54;22.52;;;14.35;;
57241;SDS011;43095;53.302;5.786;2022-10-31T06:42:22;18.52;;;14.60;;
57241;SDS011;43095;53.302;5.786;2022-10-31T06:44:50;19.60;;;14.93;;
57241;SDS011;43095;53.302;5.786;2022-10-31T06:47:35;20.05;;;15.23;;
57241;SDS011;43095;53.302;5.786;2022-10-31T06:50:27;21.98;;;15.75;;
57241;SDS011;43095;53.302;5.786;2022-10-31T06:52:55;18.80;;;14.43;;
57241;SDS011;43095;53.302;5.786;2022-10-31T06:55:25;20.80;;;14.50;;
57241;SDS011;43095;53.302;5.786;2022-10-31T06:57:53;18.88;;;14.20;;
57241;SDS011;43095;53.302;5.786;2022-10-31T07:00:29;19.48;;;15.18;;
57241;SDS011;43095;53.302;5.786;2022-10-31T07:03:06;22.20;;;15.23;;
57241;SDS011;43095;53.302;5.786;2022-10-31T07:05:38;22.35;;;15.05;;
57241;SDS011;43095;53.302;5.786;2022-10-31T07:08:06;23.80;;;16.17;;
57241;SDS011;43095;53.302;5.786;2022-10-31T07:10:36;16.65;;;13.98;;
57241;SDS011;43095;53.302;5.786;2022-10-31T07:13:12;20.90;;;15.05;;
57241;SDS011;43095;53.302;5.786;2022-10-31T07:15:48;19.67;;;13.60;;
57241;SDS011;43095;53.302;5.786;2022-10-31T07:18:15;20.65;;;15.25;;
57241;SDS011;43095;53.302;5.786;2022-10-31T07:20:43;19.00;;;15.40;;
57241;SDS011;43095;53.302;5.786;2022-10-31T07:23:10;25.65;;;17.75;;
57241;SDS011;43095;53.302;5.786;2022-10-31T07:25:39;23.00;;;16.52;;
57241;SDS011;43095;53.302;5.786;2022-10-31T07:28:12;20.08;;;14.68;;
57241;SDS011;43095;53.302;5.786;2022-10-31T07:30:48;20.17;;;15.93;;
57241;SDS011;43095;53.302;5.786;2022-10-31T07:33:19;17.92;;;13.43;;
57241;SDS011;43095;53.302;5.786;2022-10-31T07:36:13;16.90;;;14.95;;
57241;SDS011;43095;53.302;5.786;2022-10-31T07:38:42;22.50;;;15.90;;
57241;SDS011;43095;53.302;5.786;2022-10-31T07:41:12;24.23;;;15.75;;
57241;SDS011;43095;53.302;5.786;2022-10-31T07:43:42;19.70;;;14.50;;
57241;SDS011;43095;53.302;5.786;2022-10-31T07:46:30;18.98;;;15.55;;
57241;SDS011;43095;53.302;5.786;2022-10-31T07:49:17;18.85;;;14.73;;
57241;SDS011;43095;53.302;5.786;2022-10-31T07:52:03;21.00;;;16.90;;
57241;SDS011;43095;53.302;5.786;2022-10-31T07:54:46;22.90;;;16.42;;
57241;SDS011;43095;53.302;5.786;2022-10-31T07:57:21;29.75;;;20.55;;
57241;SDS011;43095;53.302;5.786;2022-10-31T07:59:51;24.52;;;17.38;;
57241;SDS011;43095;53.302;5.786;2022-10-31T08:02:18;22.63;;;17.75;;
57241;SDS011;43095;53.302;5.786;2022-10-31T08:04:46;25.15;;;17.55;;
57241;SDS011;43095;53.302;5.786;2022-10-31T08:07:36;35.75;;;22.33;;
57241;SDS011;43095;53.302;5.786;2022-10-31T08:10:07;29.98;;;20.23;;
57241;SDS011;43095;53.302;5.786;2022-10-31T08:12:34;26.25;;;18.63;;
57241;SDS011;43095;53.302;5.786;2022-10-31T08:15:06;29.35;;;18.90;;
57241;SDS011;43095;53.302;5.786;2022-10-31T08:17:35;24.55;;;18.27;;
57241;SDS011;43095;53.302;5.786;2022-10-31T08:20:03;23.27;;;18.23;;
57241;SDS011;43095;53.302;5.786;2022-10-31T08:22:35;24.63;;;18.02;;
57241;SDS011;43095;53.302;5.786;2022-10-31T08:25:10;28.50;;;20.63;;
57241;SDS011;43095;53.302;5.786;2022-10-31T08:27:38;26.10;;;20.17;;
57241;SDS011;43095;53.302;5.786;2022-10-31T08:30:08;26.52;;;20.52;;
57241;SDS011;43095;53.302;5.786;2022-10-31T08:32:39;25.33;;;19.02;;
57241;SDS011;43095;53.302;5.786;2022-10-31T08:35:25;27.88;;;18.92;;
57241;SDS011;43095;53.302;5.786;2022-10-31T08:38:11;30.33;;;21.15;;
57241;SDS011;43095;53.302;5.786;2022-10-31T08:40:40;28.42;;;20.58;;
57241;SDS011;43095;53.302;5.786;2022-10-31T08:43:14;27.25;;;20.38;;
57241;SDS011;43095;53.302;5.786;2022-10-31T08:45:43;24.50;;;19.15;;
57241;SDS011;43095;53.302;5.786;2022-10-31T08:48:22;23.17;;;19.02;;
57241;SDS011;43095;53.302;5.786;2022-10-31T08:50:49;22.92;;;18.85;;
57241;SDS011;43095;53.302;5.786;2022-10-31T08:53:18;28.08;;;20.30;;
57241;SDS011;43095;53.302;5.786;2022-10-31T08:55:56;30.92;;;21.20;;
57241;SDS011;43095;53.302;5.786;2022-10-31T08:58:24;25.80;;;19.23;;
57241;SDS011;43095;53.302;5.786;2022-10-31T09:03:27;24.48;;;18.90;;
57241;SDS011;43095;53.302;5.786;2022-10-31T09:06:00;28.27;;;19.17;;
57241;SDS011;43095;53.302;5.786;2022-10-31T09:08:30;26.40;;;18.27;;
57241;SDS011;43095;53.302;5.786;2022-10-31T09:10:59;26.65;;;19.23;;
57241;SDS011;43095;53.302;5.786;2022-10-31T09:13:47;22.45;;;16.73;;
57241;SDS011;43095;53.302;5.786;2022-10-31T09:16:33;25.67;;;17.40;;
57241;SDS011;43095;53.302;5.786;2022-10-31T09:19:00;24.05;;;17.48;;
57241;SDS011;43095;53.302;5.786;2022-10-31T09:21:32;22.45;;;16.58;;
57241;SDS011;43095;53.302;5.786;2022-10-31T09:24:00;19.85;;;15.63;;
57241;SDS011;43095;53.302;5.786;2022-10-31T09:26:27;23.90;;;17.08;;
57241;SDS011;43095;53.302;5.786;2022-10-31T09:29:01;20.23;;;15.25;;
57241;SDS011;43095;53.302;5.786;2022-10-31T09:31:33;21.83;;;15.18;;
57241;SDS011;43095;53.302;5.786;2022-10-31T09:34:08;19.55;;;14.07;;
57241;SDS011;43095;53.302;5.786;2022-10-31T09:36:36;21.67;;;14.80;;
57241;SDS011;43095;53.302;5.786;2022-10-31T09:39:11;15.55;;;12.52;;
57241;SDS011;43095;53.302;5.786;2022-10-31T09:41:55;21.67;;;12.48;;
57241;SDS011;43095;53.302;5.786;2022-10-31T09:44:44;21.23;;;12.82;;
57241;SDS011;43095;53.302;5.786;2022-10-31T09:50:49;15.77;;;10.85;;
57241;SDS011;43095;53.302;5.786;2022-10-31T09:56:58;13.57;;;10.40;;
57241;SDS011;43095;53.302;5.786;2022-10-31T09:59:31;13.05;;;10.05;;
57241;SDS011;43095;53.302;5.786;2022-10-31T10:02:21;13.98;;;9.73;;
57241;SDS011;43095;53.302;5.786;2022-10-31T10:04:56;15.00;;;9.15;;
57241;SDS011;43095;53.302;5.786;2022-10-31T10:30:32;17.77;;;11.13;;
57241;SDS011;43095;53.302;5.786;2022-10-31T10:33:09;13.75;;;10.80;;
57241;SDS011;43095;53.302;5.786;2022-10-31T10:35:46;11.80;;;10.45;;
57241;SDS011;43095;53.302;5.786;2022-10-31T10:41:19;14.65;;;10.60;;
57241;SDS011;43095;53.302;5.786;2022-10-31T10:44:01;15.40;;;10.88;;
57241;SDS011;43095;53.302;5.786;2022-10-31T10:46:42;14.10;;;11.00;;
57241;SDS011;43095;53.302;5.786;2022-10-31T10:49:45;14.00;;;10.65;;
57241;SDS011;43095;53.302;5.786;2022-10-31T10:52:32;16.63;;;11.27;;
57241;SDS011;43095;53.302;5.786;2022-10-31T10:58:01;14.88;;;10.90;;
57241;SDS011;43095;53.302;5.786;2022-10-31T11:00:31;12.32;;;10.55;;
57241;SDS011;43095;53.302;5.786;2022-10-31T11:03:09;14.55;;;10.35;;
57241;SDS011;43095;53.302;5.786;2022-10-31T11:05:41;14.85;;;9.20;;
57241;SDS011;43095;53.302;5.786;2022-10-31T11:08:35;12.15;;;9.20;;
57241;SDS011;43095;53.302;5.786;2022-10-31T11:11:03;13.50;;;9.90;;
57241;SDS011;43095;53.302;5.786;2022-10-31T11:13:39;12.80;;;9.10;;
57241;SDS011;43095;53.302;5.786;2022-10-31T11:16:09;13.93;;;9.88;;
57241;SDS011;43095;53.302;5.786;2022-10-31T11:18:43;12.57;;;8.75;;
57241;SDS011;43095;53.302;5.786;2022-10-31T11:21:47;9.70;;;8.07;;
57241;SDS011;43095;53.302;5.786;2022-10-31T11:26:38;11.13;;;8.35;;
57241;SDS011;43095;53.302;5.786;2022-10-31T11:29:15;11.48;;;8.02;;
57241;SDS011;43095;53.302;5.786;2022-10-31T11:31:52;10.18;;;7.25;;
57241;SDS011;43095;53.302;5.786;2022-10-31T11:34:29;10.40;;;7.75;;
57241;SDS011;43095;53.302;5.786;2022-10-31T11:37:04;8.90;;;6.95;;
57241;SDS011;43095;53.302;5.786;2022-10-31T11:39:44;11.98;;;7.82;;
57241;SDS011;43095;53.302;5.786;2022-10-31T11:42:24;10.10;;;6.85;;
57241;SDS011;43095;53.302;5.786;2022-10-31T11:44:54;12.50;;;7.78;;
57241;SDS011;43095;53.302;5.786;2022-10-31T11:47:28;10.13;;;7.10;;
57241;SDS011;43095;53.302;5.786;2022-10-31T11:50:00;10.38;;;6.53;;
57241;SDS011;43095;53.302;5.786;2022-10-31T11:52:36;8.05;;;5.03;;
57241;SDS011;43095;53.302;5.786;2022-10-31T11:57:43;7.93;;;5.35;;
57241;SDS011;43095;53.302;5.786;2022-10-31T12:02:50;9.70;;;6.05;;
57241;SDS011;43095;53.302;5.786;2022-10-31T12:05:25;9.90;;;5.70;;
57241;SDS011;43095;53.302;5.786;2022-10-31T12:07:59;8.13;;;5.07;;
57241;SDS011;43095;53.302;5.786;2022-10-31T12:10:33;8.77;;;5.65;;
57241;SDS011;43095;53.302;5.786;2022-10-31T12:13:12;9.30;;;6.55;;
57241;SDS011;43095;53.302;5.786;2022-10-31T12:15:47;9.13;;;6.32;;
57241;SDS011;43095;53.302;5.786;2022-10-31T12:24:05;9.20;;;5.47;;
57241;SDS011;43095;53.302;5.786;2022-10-31T12:29:15;8.32;;;4.97;;
57241;SDS011;43095;53.302;5.786;2022-10-31T12:41:07;10.75;;;7.22;;
57241;SDS011;43095;53.302;5.786;2022-10-31T12:46:33;10.82;;;7.30;;
57241;SDS011;43095;53.302;5.786;2022-10-31T12:58:50;12.23;;;7.53;;
57241;SDS011;43095;53.302;5.786;2022-10-31T13:01:30;12.68;;;6.60;;
57241;SDS011;43095;53.302;5.786;2022-10-31T13:06:53;9.85;;;6.10;;
57241;SDS011;43095;53.302;5.786;2022-10-31T13:09:32;8.50;;;5.75;;
57241;SDS011;43095;53.302;5.786;2022-10-31T13:12:31;9.88;;;7.88;;
57241;SDS011;43095;53.302;5.786;2022-10-31T13:15:04;12.10;;;6.90;;
57241;SDS011;43095;53.302;5.786;2022-10-31T13:17:54;8.32;;;6.60;;
57241;SDS011;43095;53.302;5.786;2022-10-31T13:20:26;11.15;;;7.15;;
57241;SDS011;43095;53.302;5.786;2022-10-31T13:23:42;14.02;;;8.88;;
57241;SDS011;43095;53.302;5.786;2022-10-31T13:26:20;13.00;;;7.78;;
57241;SDS011;43095;53.302;5.786;2022-10-31T13:28:54;11.88;;;7.53;;
57241;SDS011;43095;53.302;5.786;2022-10-31T13:34:09;10.02;;;6.47;;
57241;SDS011;43095;53.302;5.786;2022-10-31T13:42:22;10.60;;;5.82;;
57241;SDS011;43095;53.302;5.786;2022-10-31T13:47:54;11.95;;;4.13;;
57241;SDS011;43095;53.302;5.786;2022-10-31T13:55:47;10.38;;;4.18;;
57241;SDS011;43095;53.302;5.786;2022-10-31T14:01:11;9.50;;;3.55;;
57241;SDS011;43095;53.302;5.786;2022-10-31T14:03:43;6.72;;;3.10;;
57241;SDS011;43095;53.302;5.786;2022-10-31T14:09:14;9.80;;;4.13;;
57241;SDS011;43095;53.302;5.786;2022-10-31T14:11:46;9.77;;;4.03;;
57241;SDS011;43095;53.302;5.786;2022-10-31T14:14:15;8.48;;;4.00;;
57241;SDS011;43095;53.302;5.786;2022-10-31T14:16:44;6.22;;;3.45;;
57241;SDS011;43095;53.302;5.786;2022-10-31T14:19:21;11.80;;;3.72;;
57241;SDS011;43095;53.302;5.786;2022-10-31T14:21:49;9.48;;;3.30;;
57241;SDS011;43095;53.302;5.786;2022-10-31T14:27:00;9.07;;;3.60;;
57241;SDS011;43095;53.302;5.786;2022-10-31T14:29:30;6.82;;;3.00;;
57241;SDS011;43095;53.302;5.786;2022-10-31T14:32:03;6.75;;;3.15;;
57241;SDS011;43095;53.302;5.786;2022-10-31T14:51:44;8.25;;;4.40;;
57241;SDS011;43095;53.302;5.786;2022-10-31T14:56:54;10.23;;;4.38;;
57241;SDS011;43095;53.302;5.786;2022-10-31T14:59:27;8.43;;;3.95;;
57241;SDS011;43095;53.302;5.786;2022-10-31T15:02:17;7.83;;;4.03;;
57241;SDS011;43095;53.302;5.786;2022-10-31T15:05:10;7.60;;;3.78;;
57241;SDS011;43095;53.302;5.786;2022-10-31T15:07:55;10.13;;;5.07;;
57241;SDS011;43095;53.302;5.786;2022-10-31T15:10:28;10.35;;;4.10;;
57241;SDS011;43095;53.302;5.786;2022-10-31T15:13:15;7.40;;;4.45;;
57241;SDS011;43095;53.302;5.786;2022-10-31T15:15:45;7.22;;;4.47;;
57241;SDS011;43095;53.302;5.786;2022-10-31T15:18:20;9.25;;;4.00;;
57241;SDS011;43095;53.302;5.786;2022-10-31T15:20:50;9.23;;;3.83;;
57241;SDS011;43095;53.302;5.786;2022-10-31T15:23:28;9.32;;;3.90;;
57241;SDS011;43095;53.302;5.786;2022-10-31T15:26:00;9.52;;;3.85;;
57241;SDS011;43095;53.302;5.786;2022-10-31T15:28:29;8.68;;;3.70;;
57241;SDS011;43095;53.302;5.786;2022-10-31T15:30:59;9.55;;;4.55;;
57241;SDS011;43095;53.302;5.786;2022-10-31T15:33:28;8.57;;;3.97;;
57241;SDS011;43095;53.302;5.786;2022-10-31T15:36:24;12.15;;;4.10;;
57241;SDS011;43095;53.302;5.786;2022-10-31T15:38:56;11.27;;;3.65;;
57241;SDS011;43095;53.302;5.786;2022-10-31T15:44:20;9.98;;;3.22;;
57241;SDS011;43095;53.302;5.786;2022-10-31T15:46:58;8.63;;;2.97;;
57241;SDS011;43095;53.302;5.786;2022-10-31T15:49:29;10.20;;;3.25;;
57241;SDS011;43095;53.302;5.786;2022-10-31T15:52:14;12.20;;;3.22;;
57241;SDS011;43095;53.302;5.786;2022-10-31T15:54:46;10.75;;;3.50;;
57241;SDS011;43095;53.302;5.786;2022-10-31T15:57:16;12.70;;;3.85;;
57241;SDS011;43095;53.302;5.786;2022-10-31T15:59:46;10.02;;;4.43;;
57241;SDS011;43095;53.302;5.786;2022-10-31T16:02:17;12.95;;;3.92;;
57241;SDS011;43095;53.302;5.786;2022-10-31T16:07:19;10.32;;;4.38;;
57241;SDS011;43095;53.302;5.786;2022-10-31T16:15:13;11.18;;;4.10;;
57241;SDS011;43095;53.302;5.786;2022-10-31T16:18:02;9.27;;;3.67;;
57241;SDS011;43095;53.302;5.786;2022-10-31T16:20:30;12.75;;;4.10;;
57241;SDS011;43095;53.302;5.786;2022-10-31T16:22:58;12.75;;;4.07;;
57241;SDS011;43095;53.302;5.786;2022-10-31T16:25:29;14.40;;;4.93;;
57241;SDS011;43095;53.302;5.786;2022-10-31T16:28:05;9.63;;;5.00;;
57241;SDS011;43095;53.302;5.786;2022-10-31T16:30:45;12.35;;;5.18;;
57241;SDS011;43095;53.302;5.786;2022-10-31T16:35:57;9.63;;;5.25;;
57241;SDS011;43095;53.302;5.786;2022-10-31T16:38:45;13.57;;;5.72;;
57241;SDS011;43095;53.302;5.786;2022-10-31T16:41:12;14.25;;;6.40;;
57241;SDS011;43095;53.302;5.786;2022-10-31T16:43:39;17.73;;;7.03;;
57241;SDS011;43095;53.302;5.786;2022-10-31T16:46:08;14.30;;;6.55;;
57241;SDS011;43095;53.302;5.786;2022-10-31T16:48:41;11.13;;;6.22;;
57241;SDS011;43095;53.302;5.786;2022-10-31T16:51:08;17.80;;;6.13;;
57241;SDS011;43095;53.302;5.786;2022-10-31T16:53:35;14.70;;;6.25;;
57241;SDS011;43095;53.302;5.786;2022-10-31T16:56:15;13.55;;;7.18;;
57241;SDS011;43095;53.302;5.786;2022-10-31T16:58:44;17.88;;;8.18;;
57241;SDS011;43095;53.302;5.786;2022-10-31T17:01:11;16.83;;;6.70;;
57241;SDS011;43095;53.302;5.786;2022-10-31T17:03:40;15.40;;;6.75;;
57241;SDS011;43095;53.302;5.786;2022-10-31T17:06:16;14.90;;;6.35;;
57241;SDS011;43095;53.302;5.786;2022-10-31T17:08:43;13.40;;;7.47;;
57241;SDS011;43095;53.302;5.786;2022-10-31T17:11:15;12.90;;;6.13;;
57241;SDS011;43095;53.302;5.786;2022-10-31T17:13:44;11.35;;;6.38;;
57241;SDS011;43095;53.302;5.786;2022-10-31T17:16:12;17.23;;;7.18;;
57241;SDS011;43095;53.302;5.786;2022-10-31T17:18:42;16.77;;;7.18;;
57241;SDS011;43095;53.302;5.786;2022-10-31T17:21:16;16.73;;;6.88;;
57241;SDS011;43095;53.302;5.786;2022-10-31T17:23:46;10.45;;;6.63;;
57241;SDS011;43095;53.302;5.786;2022-10-31T17:26:13;14.15;;;7.05;;
57241;SDS011;43095;53.302;5.786;2022-10-31T17:28:40;16.80;;;7.47;;
57241;SDS011;43095;53.302;5.786;2022-10-31T17:31:29;13.15;;;6.88;;
57241;SDS011;43095;53.302;5.786;2022-10-31T17:33:57;17.13;;;8.45;;
57241;SDS011;43095;53.302;5.786;2022-10-31T17:36:29;17.70;;;8.13;;
57241;SDS011;43095;53.302;5.786;2022-10-31T17:38:57;17.30;;;7.72;;
57241;SDS011;43095;53.302;5.786;2022-10-31T17:41:25;17.77;;;8.90;;
57241;SDS011;43095;53.302;5.786;2022-10-31T17:43:56;15.52;;;9.45;;
57241;SDS011;43095;53.302;5.786;2022-10-31T17:46:24;13.88;;;9.27;;
57241;SDS011;43095;53.302;5.786;2022-10-31T17:48:51;17.20;;;10.40;;
57241;SDS011;43095;53.302;5.786;2022-10-31T17:51:19;23.98;;;10.18;;
57241;SDS011;43095;53.302;5.786;2022-10-31T17:53:46;20.88;;;9.95;;
57241;SDS011;43095;53.302;5.786;2022-10-31T17:56:13;15.18;;;10.30;;
57241;SDS011;43095;53.302;5.786;2022-10-31T17:58:40;16.85;;;11.23;;
57241;SDS011;43095;53.302;5.786;2022-10-31T18:01:12;16.55;;;10.82;;